sensor_id;sensor_type;location;lat;lon;timestamp;P1;durP1;ratioP1;P2;durP2;ratioP2
27543;SDS011;17996;51.056;3.656;2023-03-14T00:01:07;12.32;;;2.55;;
27543;SDS011;17996;51.056;3.656;2023-03-14T00:03:43;12.88;;;2.28;;
27543;SDS011;17996;51.056;3.656;2023-03-14T00:06:09;6.85;;;1.85;;
27543;SDS011;17996;51.056;3.656;2023-03-14T00:08:35;12.57;;;2.88;;
27543;SDS011;17996;51.056;3.656;2023-03-14T00:11:05;11.30;;;2.60;;
27543;SDS011;17996;51.056;3.656;2023-03-14T00:13:32;10.00;;;2.30;;
27543;SDS011;17996;51.056;3.656;2023-03-14T00:16:05;10.05;;;2.03;;
27543;SDS011;17996;51.056;3.656;2023-03-14T00:18:32;8.98;;;2.42;;
27543;SDS011;17996;51.056;3.656;2023-03-14T00:20:59;8.90;;;2.17;;
27543;SDS011;17996;51.056;3.656;2023-03-14T00:23:26;9.00;;;2.13;;
27543;SDS011;17996;51.056;3.656;2023-03-14T00:25:53;15.27;;;2.95;;
27543;SDS011;17996;51.056;3.656;2023-03-14T00:28:22;8.43;;;2.35;;
27543;SDS011;17996;51.056;3.656;2023-03-14T00:30:48;8.48;;;2.67;;
27543;SDS011;17996;51.056;3.656;2023-03-14T00:33:14;10.80;;;2.20;;
27543;SDS011;17996;51.056;3.656;2023-03-14T00:35:39;17.67;;;3.58;;
27543;SDS011;17996;51.056;3.656;2023-03-14T00:38:05;14.75;;;3.67;;
27543;SDS011;17996;51.056;3.656;2023-03-14T00:40:31;11.43;;;2.90;;
27543;SDS011;17996;51.056;3.656;2023-03-14T00:42:56;14.70;;;2.90;;
27543;SDS011;17996;51.056;3.656;2023-03-14T00:45:22;17.90;;;3.63;;
27543;SDS011;17996;51.056;3.656;2023-03-14T00:47:48;14.07;;;2.97;;
27543;SDS011;17996;51.056;3.656;2023-03-14T00:50:13;14.40;;;3.40;;
27543;SDS011;17996;51.056;3.656;2023-03-14T00:52:39;15.52;;;3.22;;
27543;SDS011;17996;51.056;3.656;2023-03-14T00:55:05;16.90;;;2.97;;
27543;SDS011;17996;51.056;3.656;2023-03-14T00:57:31;13.77;;;2.60;;
27543;SDS011;17996;51.056;3.656;2023-03-14T00:59:57;12.90;;;3.33;;
27543;SDS011;17996;51.056;3.656;2023-03-14T01:02:22;17.50;;;3.47;;
27543;SDS011;17996;51.056;3.656;2023-03-14T01:04:48;18.25;;;3.40;;
27543;SDS011;17996;51.056;3.656;2023-03-14T01:07:15;17.27;;;3.58;;
27543;SDS011;17996;51.056;3.656;2023-03-14T01:09:41;19.75;;;3.35;;
27543;SDS011;17996;51.056;3.656;2023-03-14T01:12:07;21.20;;;3.47;;
27543;SDS011;17996;51.056;3.656;2023-03-14T01:14:32;21.00;;;4.07;;
27543;SDS011;17996;51.056;3.656;2023-03-14T01:16:58;14.77;;;3.20;;
27543;SDS011;17996;51.056;3.656;2023-03-14T01:19:28;17.38;;;3.63;;
27543;SDS011;17996;51.056;3.656;2023-03-14T01:21:54;18.75;;;3.85;;
27543;SDS011;17996;51.056;3.656;2023-03-14T01:24:20;17.13;;;3.47;;
27543;SDS011;17996;51.056;3.656;2023-03-14T01:26:46;22.48;;;4.20;;
27543;SDS011;17996;51.056;3.656;2023-03-14T01:29:11;16.27;;;3.72;;
27543;SDS011;17996;51.056;3.656;2023-03-14T01:31:37;16.00;;;3.20;;
27543;SDS011;17996;51.056;3.656;2023-03-14T01:34:03;13.65;;;2.90;;
27543;SDS011;17996;51.056;3.656;2023-03-14T01:36:29;18.23;;;2.90;;
27543;SDS011;17996;51.056;3.656;2023-03-14T01:38:54;21.90;;;3.03;;
27543;SDS011;17996;51.056;3.656;2023-03-14T01:41:22;18.77;;;3.17;;
27543;SDS011;17996;51.056;3.656;2023-03-14T01:43:49;19.40;;;3.20;;
27543;SDS011;17996;51.056;3.656;2023-03-14T01:51:44;13.70;;;2.83;;
27543;SDS011;17996;51.056;3.656;2023-03-14T01:54:16;16.00;;;2.90;;
27543;SDS011;17996;51.056;3.656;2023-03-14T01:57:35;12.38;;;3.17;;
27543;SDS011;17996;51.056;3.656;2023-03-14T01:59:46;10.80;;;2.38;;
27543;SDS011;17996;51.056;3.656;2023-03-14T02:02:16;15.65;;;3.10;;
27543;SDS011;17996;51.056;3.656;2023-03-14T02:04:42;11.23;;;2.63;;
27543;SDS011;17996;51.056;3.656;2023-03-14T02:07:15;12.63;;;2.80;;
27543;SDS011;17996;51.056;3.656;2023-03-14T02:09:58;10.65;;;2.78;;
27543;SDS011;17996;51.056;3.656;2023-03-14T02:12:26;12.32;;;2.83;;
27543;SDS011;17996;51.056;3.656;2023-03-14T02:14:53;13.05;;;3.45;;
27543;SDS011;17996;51.056;3.656;2023-03-14T02:17:18;8.60;;;1.95;;
27543;SDS011;17996;51.056;3.656;2023-03-14T02:22:13;10.20;;;2.35;;
27543;SDS011;17996;51.056;3.656;2023-03-14T02:27:21;9.95;;;2.38;;
27543;SDS011;17996;51.056;3.656;2023-03-14T02:32:27;7.60;;;1.70;;
27543;SDS011;17996;51.056;3.656;2023-03-14T02:34:55;10.88;;;1.70;;
27543;SDS011;17996;51.056;3.656;2023-03-14T02:37:24;13.82;;;2.08;;
27543;SDS011;17996;51.056;3.656;2023-03-14T02:39:58;7.30;;;1.67;;
27543;SDS011;17996;51.056;3.656;2023-03-14T02:42:23;9.52;;;2.17;;
27543;SDS011;17996;51.056;3.656;2023-03-14T02:47:36;8.82;;;1.90;;
27543;SDS011;17996;51.056;3.656;2023-03-14T02:50:11;8.15;;;1.63;;
27543;SDS011;17996;51.056;3.656;2023-03-14T02:52:40;6.35;;;1.80;;
27543;SDS011;17996;51.056;3.656;2023-03-14T02:55:06;5.85;;;1.90;;
27543;SDS011;17996;51.056;3.656;2023-03-14T02:57:32;8.45;;;1.65;;
27543;SDS011;17996;51.056;3.656;2023-03-14T02:59:58;9.10;;;1.95;;
27543;SDS011;17996;51.056;3.656;2023-03-14T03:02:25;7.93;;;1.40;;
27543;SDS011;17996;51.056;3.656;2023-03-14T03:04:51;6.43;;;1.67;;
27543;SDS011;17996;51.056;3.656;2023-03-14T03:07:17;12.63;;;2.70;;
27543;SDS011;17996;51.056;3.656;2023-03-14T03:09:44;7.43;;;1.85;;
27543;SDS011;17996;51.056;3.656;2023-03-14T03:12:10;10.35;;;2.10;;
27543;SDS011;17996;51.056;3.656;2023-03-14T03:14:36;12.63;;;2.40;;
27543;SDS011;17996;51.056;3.656;2023-03-14T03:17:03;11.75;;;1.80;;
27543;SDS011;17996;51.056;3.656;2023-03-14T03:19:29;8.38;;;2.05;;
27543;SDS011;17996;51.056;3.656;2023-03-14T03:21:56;7.53;;;1.92;;
27543;SDS011;17996;51.056;3.656;2023-03-14T03:24:22;15.57;;;2.28;;
27543;SDS011;17996;51.056;3.656;2023-03-14T03:26:48;12.77;;;2.90;;
27543;SDS011;17996;51.056;3.656;2023-03-14T03:29:14;12.23;;;2.95;;
27543;SDS011;17996;51.056;3.656;2023-03-14T03:31:40;7.45;;;2.55;;
27543;SDS011;17996;51.056;3.656;2023-03-14T03:34:06;8.85;;;2.60;;
27543;SDS011;17996;51.056;3.656;2023-03-14T03:36:32;7.82;;;2.75;;
27543;SDS011;17996;51.056;3.656;2023-03-14T03:38:58;8.90;;;3.42;;
27543;SDS011;17996;51.056;3.656;2023-03-14T03:41:23;12.13;;;3.08;;
27543;SDS011;17996;51.056;3.656;2023-03-14T03:43:49;11.18;;;3.90;;
27543;SDS011;17996;51.056;3.656;2023-03-14T03:46:15;9.27;;;4.10;;
27543;SDS011;17996;51.056;3.656;2023-03-14T03:48:41;13.43;;;4.72;;
27543;SDS011;17996;51.056;3.656;2023-03-14T03:51:06;8.82;;;4.30;;
27543;SDS011;17996;51.056;3.656;2023-03-14T03:53:32;11.57;;;4.88;;
27543;SDS011;17996;51.056;3.656;2023-03-14T03:55:58;14.30;;;4.80;;
27543;SDS011;17996;51.056;3.656;2023-03-14T03:58:23;12.65;;;4.93;;
27543;SDS011;17996;51.056;3.656;2023-03-14T04:00:49;8.25;;;3.55;;
27543;SDS011;17996;51.056;3.656;2023-03-14T04:03:15;9.90;;;3.85;;
27543;SDS011;17996;51.056;3.656;2023-03-14T04:05:41;13.40;;;4.20;;
27543;SDS011;17996;51.056;3.656;2023-03-14T04:08:06;16.48;;;4.13;;
27543;SDS011;17996;51.056;3.656;2023-03-14T04:10:35;7.82;;;2.83;;
27543;SDS011;17996;51.056;3.656;2023-03-14T04:13:01;9.23;;;3.28;;
27543;SDS011;17996;51.056;3.656;2023-03-14T04:15:27;6.70;;;2.75;;
27543;SDS011;17996;51.056;3.656;2023-03-14T04:17:56;13.30;;;3.53;;
27543;SDS011;17996;51.056;3.656;2023-03-14T04:20:23;7.47;;;2.85;;
27543;SDS011;17996;51.056;3.656;2023-03-14T04:22:48;12.25;;;2.85;;
27543;SDS011;17996;51.056;3.656;2023-03-14T04:25:14;11.23;;;3.30;;
27543;SDS011;17996;51.056;3.656;2023-03-14T04:27:42;9.10;;;2.92;;
27543;SDS011;17996;51.056;3.656;2023-03-14T04:30:08;9.70;;;3.72;;
27543;SDS011;17996;51.056;3.656;2023-03-14T04:32:34;10.18;;;3.38;;
27543;SDS011;17996;51.056;3.656;2023-03-14T04:34:59;9.82;;;3.38;;
27543;SDS011;17996;51.056;3.656;2023-03-14T04:37:25;11.07;;;3.35;;
27543;SDS011;17996;51.056;3.656;2023-03-14T04:39:51;12.57;;;3.53;;
27543;SDS011;17996;51.056;3.656;2023-03-14T04:42:16;10.82;;;3.45;;
27543;SDS011;17996;51.056;3.656;2023-03-14T04:44:42;8.73;;;3.03;;
27543;SDS011;17996;51.056;3.656;2023-03-14T04:47:08;8.43;;;2.83;;
27543;SDS011;17996;51.056;3.656;2023-03-14T04:49:34;10.30;;;3.33;;
27543;SDS011;17996;51.056;3.656;2023-03-14T04:51:59;10.65;;;3.15;;
27543;SDS011;17996;51.056;3.656;2023-03-14T04:54:25;8.98;;;3.00;;
27543;SDS011;17996;51.056;3.656;2023-03-14T04:56:51;6.15;;;2.72;;
27543;SDS011;17996;51.056;3.656;2023-03-14T04:59:17;12.65;;;3.15;;
27543;SDS011;17996;51.056;3.656;2023-03-14T05:01:43;7.70;;;2.60;;
27543;SDS011;17996;51.056;3.656;2023-03-14T05:04:09;7.68;;;2.90;;
27543;SDS011;17996;51.056;3.656;2023-03-14T05:06:34;9.25;;;3.17;;
27543;SDS011;17996;51.056;3.656;2023-03-14T05:09:00;6.50;;;2.85;;
27543;SDS011;17996;51.056;3.656;2023-03-14T05:11:26;7.70;;;2.60;;
27543;SDS011;17996;51.056;3.656;2023-03-14T05:13:51;4.93;;;2.17;;
27543;SDS011;17996;51.056;3.656;2023-03-14T05:16:17;5.50;;;2.08;;
27543;SDS011;17996;51.056;3.656;2023-03-14T05:18:43;5.97;;;2.00;;
27543;SDS011;17996;51.056;3.656;2023-03-14T05:21:08;6.93;;;2.15;;
27543;SDS011;17996;51.056;3.656;2023-03-14T05:23:34;5.82;;;2.22;;
27543;SDS011;17996;51.056;3.656;2023-03-14T05:26:00;5.65;;;1.90;;
27543;SDS011;17996;51.056;3.656;2023-03-14T05:28:25;7.85;;;2.70;;
27543;SDS011;17996;51.056;3.656;2023-03-14T05:30:51;11.00;;;2.70;;
27543;SDS011;17996;51.056;3.656;2023-03-14T05:33:17;7.28;;;2.75;;
27543;SDS011;17996;51.056;3.656;2023-03-14T05:35:43;8.32;;;2.38;;
27543;SDS011;17996;51.056;3.656;2023-03-14T05:38:08;12.60;;;3.60;;
27543;SDS011;17996;51.056;3.656;2023-03-14T05:40:34;6.80;;;3.17;;
27543;SDS011;17996;51.056;3.656;2023-03-14T05:43:00;7.45;;;3.38;;
27543;SDS011;17996;51.056;3.656;2023-03-14T05:45:26;8.73;;;3.88;;
27543;SDS011;17996;51.056;3.656;2023-03-14T05:47:51;11.10;;;3.78;;
27543;SDS011;17996;51.056;3.656;2023-03-14T05:50:17;16.38;;;4.30;;
27543;SDS011;17996;51.056;3.656;2023-03-14T05:52:43;8.82;;;4.00;;
27543;SDS011;17996;51.056;3.656;2023-03-14T05:55:08;22.65;;;5.18;;
27543;SDS011;17996;51.056;3.656;2023-03-14T05:57:34;13.85;;;4.47;;
27543;SDS011;17996;51.056;3.656;2023-03-14T06:00:00;10.75;;;3.28;;
27543;SDS011;17996;51.056;3.656;2023-03-14T06:02:25;7.95;;;3.10;;
27543;SDS011;17996;51.056;3.656;2023-03-14T06:04:51;5.43;;;2.10;;
27543;SDS011;17996;51.056;3.656;2023-03-14T06:07:17;7.65;;;2.00;;
27543;SDS011;17996;51.056;3.656;2023-03-14T06:09:43;12.25;;;2.30;;
27543;SDS011;17996;51.056;3.656;2023-03-14T06:12:10;10.93;;;2.55;;
27543;SDS011;17996;51.056;3.656;2023-03-14T06:14:35;9.63;;;3.45;;
27543;SDS011;17996;51.056;3.656;2023-03-14T06:17:01;8.98;;;3.15;;
27543;SDS011;17996;51.056;3.656;2023-03-14T06:19:27;9.38;;;3.15;;
27543;SDS011;17996;51.056;3.656;2023-03-14T06:21:53;14.90;;;3.83;;
27543;SDS011;17996;51.056;3.656;2023-03-14T06:24:19;13.93;;;3.90;;
27543;SDS011;17996;51.056;3.656;2023-03-14T06:26:46;15.95;;;4.38;;
27543;SDS011;17996;51.056;3.656;2023-03-14T06:29:13;8.50;;;3.80;;
27543;SDS011;17996;51.056;3.656;2023-03-14T06:31:39;17.40;;;4.78;;
27543;SDS011;17996;51.056;3.656;2023-03-14T06:34:05;16.00;;;5.30;;
27543;SDS011;17996;51.056;3.656;2023-03-14T06:36:32;17.55;;;5.20;;
27543;SDS011;17996;51.056;3.656;2023-03-14T06:38:59;17.83;;;5.53;;
27543;SDS011;17996;51.056;3.656;2023-03-14T06:41:24;19.42;;;5.60;;
27543;SDS011;17996;51.056;3.656;2023-03-14T06:43:51;26.58;;;6.30;;
27543;SDS011;17996;51.056;3.656;2023-03-14T06:46:19;26.63;;;6.65;;
27543;SDS011;17996;51.056;3.656;2023-03-14T06:48:44;14.73;;;7.22;;
27543;SDS011;17996;51.056;3.656;2023-03-14T06:51:10;16.77;;;6.78;;
27543;SDS011;17996;51.056;3.656;2023-03-14T06:53:36;26.35;;;7.50;;
27543;SDS011;17996;51.056;3.656;2023-03-14T06:56:02;21.60;;;7.90;;
27543;SDS011;17996;51.056;3.656;2023-03-14T06:58:28;20.05;;;7.75;;
27543;SDS011;17996;51.056;3.656;2023-03-14T07:00:54;23.33;;;8.07;;
27543;SDS011;17996;51.056;3.656;2023-03-14T07:03:27;17.25;;;8.18;;
27543;SDS011;17996;51.056;3.656;2023-03-14T07:05:53;16.13;;;7.00;;
27543;SDS011;17996;51.056;3.656;2023-03-14T07:08:20;18.88;;;7.93;;
27543;SDS011;17996;51.056;3.656;2023-03-14T07:10:47;18.77;;;7.50;;
27543;SDS011;17996;51.056;3.656;2023-03-14T07:13:12;16.17;;;6.80;;
27543;SDS011;17996;51.056;3.656;2023-03-14T07:15:38;14.80;;;7.53;;
27543;SDS011;17996;51.056;3.656;2023-03-14T07:18:04;19.33;;;6.68;;
27543;SDS011;17996;51.056;3.656;2023-03-14T07:20:29;20.63;;;7.25;;
27543;SDS011;17996;51.056;3.656;2023-03-14T07:22:57;18.02;;;7.13;;
27543;SDS011;17996;51.056;3.656;2023-03-14T07:25:25;15.57;;;5.78;;
27543;SDS011;17996;51.056;3.656;2023-03-14T07:27:52;33.58;;;6.53;;
27543;SDS011;17996;51.056;3.656;2023-03-14T07:30:19;14.15;;;4.38;;
27543;SDS011;17996;51.056;3.656;2023-03-14T07:32:44;14.25;;;5.00;;
27543;SDS011;17996;51.056;3.656;2023-03-14T07:35:11;12.60;;;4.97;;
27543;SDS011;17996;51.056;3.656;2023-03-14T07:37:37;13.52;;;5.03;;
27543;SDS011;17996;51.056;3.656;2023-03-14T07:40:02;9.73;;;4.57;;
27543;SDS011;17996;51.056;3.656;2023-03-14T07:42:31;16.23;;;4.82;;
27543;SDS011;17996;51.056;3.656;2023-03-14T07:44:57;19.05;;;4.88;;
27543;SDS011;17996;51.056;3.656;2023-03-14T07:47:23;14.45;;;4.15;;
27543;SDS011;17996;51.056;3.656;2023-03-14T07:49:48;19.08;;;4.63;;
27543;SDS011;17996;51.056;3.656;2023-03-14T07:52:14;16.83;;;5.40;;
27543;SDS011;17996;51.056;3.656;2023-03-14T07:54:40;13.10;;;4.50;;
27543;SDS011;17996;51.056;3.656;2023-03-14T07:57:05;14.68;;;3.88;;
27543;SDS011;17996;51.056;3.656;2023-03-14T07:59:31;12.13;;;4.38;;
27543;SDS011;17996;51.056;3.656;2023-03-14T08:01:57;9.85;;;4.72;;
27543;SDS011;17996;51.056;3.656;2023-03-14T08:04:23;10.55;;;4.32;;
27543;SDS011;17996;51.056;3.656;2023-03-14T08:06:49;11.38;;;4.88;;
27543;SDS011;17996;51.056;3.656;2023-03-14T08:09:15;14.75;;;4.95;;
27543;SDS011;17996;51.056;3.656;2023-03-14T08:11:40;9.55;;;5.45;;
27543;SDS011;17996;51.056;3.656;2023-03-14T08:14:06;16.15;;;5.10;;
27543;SDS011;17996;51.056;3.656;2023-03-14T08:16:32;18.65;;;5.47;;
27543;SDS011;17996;51.056;3.656;2023-03-14T08:18:57;16.83;;;5.15;;
27543;SDS011;17996;51.056;3.656;2023-03-14T08:21:23;12.43;;;5.32;;
27543;SDS011;17996;51.056;3.656;2023-03-14T08:23:49;15.63;;;5.20;;
27543;SDS011;17996;51.056;3.656;2023-03-14T08:26:14;13.18;;;4.68;;
27543;SDS011;17996;51.056;3.656;2023-03-14T08:28:40;15.43;;;5.18;;
27543;SDS011;17996;51.056;3.656;2023-03-14T08:31:06;15.18;;;5.20;;
27543;SDS011;17996;51.056;3.656;2023-03-14T08:33:32;13.20;;;4.70;;
27543;SDS011;17996;51.056;3.656;2023-03-14T08:35:58;12.88;;;6.00;;
27543;SDS011;17996;51.056;3.656;2023-03-14T08:38:25;16.77;;;6.18;;
27543;SDS011;17996;51.056;3.656;2023-03-14T08:40:57;20.35;;;6.57;;
27543;SDS011;17996;51.056;3.656;2023-03-14T08:43:24;21.92;;;5.88;;
27543;SDS011;17996;51.056;3.656;2023-03-14T08:45:50;25.02;;;6.05;;
27543;SDS011;17996;51.056;3.656;2023-03-14T08:48:16;24.92;;;6.45;;
27543;SDS011;17996;51.056;3.656;2023-03-14T08:50:42;24.08;;;5.80;;
27543;SDS011;17996;51.056;3.656;2023-03-14T08:53:08;20.92;;;5.55;;
27543;SDS011;17996;51.056;3.656;2023-03-14T08:55:33;23.90;;;5.13;;
27543;SDS011;17996;51.056;3.656;2023-03-14T08:57:59;25.90;;;6.05;;
27543;SDS011;17996;51.056;3.656;2023-03-14T09:00:25;23.60;;;5.30;;
27543;SDS011;17996;51.056;3.656;2023-03-14T09:02:50;33.03;;;5.88;;
27543;SDS011;17996;51.056;3.656;2023-03-14T09:05:16;18.48;;;5.57;;
27543;SDS011;17996;51.056;3.656;2023-03-14T09:07:42;20.17;;;5.00;;
27543;SDS011;17996;51.056;3.656;2023-03-14T09:10:08;23.77;;;6.13;;
27543;SDS011;17996;51.056;3.656;2023-03-14T09:12:34;17.63;;;4.93;;
27543;SDS011;17996;51.056;3.656;2023-03-14T09:15:00;21.92;;;4.53;;
27543;SDS011;17996;51.056;3.656;2023-03-14T09:17:26;28.42;;;5.20;;
27543;SDS011;17996;51.056;3.656;2023-03-14T09:19:52;21.73;;;4.60;;
27543;SDS011;17996;51.056;3.656;2023-03-14T09:22:18;16.15;;;4.18;;
27543;SDS011;17996;51.056;3.656;2023-03-14T09:24:43;17.25;;;4.93;;
27543;SDS011;17996;51.056;3.656;2023-03-14T09:27:09;25.25;;;4.95;;
27543;SDS011;17996;51.056;3.656;2023-03-14T09:29:35;26.60;;;4.53;;
27543;SDS011;17996;51.056;3.656;2023-03-14T09:32:00;23.20;;;4.72;;
27543;SDS011;17996;51.056;3.656;2023-03-14T09:34:26;22.20;;;3.85;;
27543;SDS011;17996;51.056;3.656;2023-03-14T09:36:52;22.38;;;4.60;;
27543;SDS011;17996;51.056;3.656;2023-03-14T09:39:17;14.23;;;3.30;;
27543;SDS011;17996;51.056;3.656;2023-03-14T09:41:44;21.42;;;4.22;;
27543;SDS011;17996;51.056;3.656;2023-03-14T09:44:19;31.20;;;5.20;;
27543;SDS011;17996;51.056;3.656;2023-03-14T09:46:51;17.40;;;3.38;;
27543;SDS011;17996;51.056;3.656;2023-03-14T09:49:20;15.15;;;3.17;;
27543;SDS011;17996;51.056;3.656;2023-03-14T09:51:51;21.77;;;4.63;;
27543;SDS011;17996;51.056;3.656;2023-03-14T09:54:40;21.30;;;3.03;;
27543;SDS011;17996;51.056;3.656;2023-03-14T09:57:11;18.67;;;2.97;;
27543;SDS011;17996;51.056;3.656;2023-03-14T09:59:41;21.05;;;2.90;;
27543;SDS011;17996;51.056;3.656;2023-03-14T10:02:22;19.13;;;2.90;;
27543;SDS011;17996;51.056;3.656;2023-03-14T10:04:58;13.50;;;3.05;;
27543;SDS011;17996;51.056;3.656;2023-03-14T10:07:27;13.82;;;2.60;;
27543;SDS011;17996;51.056;3.656;2023-03-14T10:12:22;10.73;;;1.65;;
27543;SDS011;17996;51.056;3.656;2023-03-14T10:14:58;14.35;;;1.67;;
27543;SDS011;17996;51.056;3.656;2023-03-14T10:17:37;8.80;;;1.40;;
27543;SDS011;17996;51.056;3.656;2023-03-14T10:20:07;6.10;;;1.65;;
27543;SDS011;17996;51.056;3.656;2023-03-14T10:25:40;12.95;;;1.92;;
27543;SDS011;17996;51.056;3.656;2023-03-14T10:28:22;13.90;;;2.88;;
27543;SDS011;17996;51.056;3.656;2023-03-14T10:30:53;16.05;;;2.60;;
27543;SDS011;17996;51.056;3.656;2023-03-14T10:33:30;7.57;;;1.80;;
27543;SDS011;17996;51.056;3.656;2023-03-14T10:36:02;11.95;;;2.53;;
27543;SDS011;17996;51.056;3.656;2023-03-14T10:38:48;18.38;;;2.85;;
27543;SDS011;17996;51.056;3.656;2023-03-14T10:41:18;10.25;;;2.72;;
27543;SDS011;17996;51.056;3.656;2023-03-14T10:43:50;16.63;;;3.55;;
27543;SDS011;17996;51.056;3.656;2023-03-14T10:46:19;13.57;;;2.42;;
27543;SDS011;17996;51.056;3.656;2023-03-14T10:48:45;18.38;;;2.95;;
27543;SDS011;17996;51.056;3.656;2023-03-14T10:56:23;13.27;;;2.55;;
27543;SDS011;17996;51.056;3.656;2023-03-14T10:58:55;9.75;;;2.30;;
27543;SDS011;17996;51.056;3.656;2023-03-14T11:06:56;12.75;;;3.15;;
27543;SDS011;17996;51.056;3.656;2023-03-14T11:09:39;14.73;;;2.78;;
27543;SDS011;17996;51.056;3.656;2023-03-14T11:14:46;13.25;;;2.20;;
27543;SDS011;17996;51.056;3.656;2023-03-14T11:17:27;10.02;;;2.05;;
27543;SDS011;17996;51.056;3.656;2023-03-14T11:22:46;9.65;;;2.28;;
27543;SDS011;17996;51.056;3.656;2023-03-14T11:30:52;9.98;;;2.13;;
27543;SDS011;17996;51.056;3.656;2023-03-14T11:33:33;10.70;;;2.13;;
27543;SDS011;17996;51.056;3.656;2023-03-14T11:36:06;15.35;;;3.25;;
27543;SDS011;17996;51.056;3.656;2023-03-14T11:38:38;10.63;;;2.10;;
27543;SDS011;17996;51.056;3.656;2023-03-14T11:41:14;12.15;;;2.80;;
27543;SDS011;17996;51.056;3.656;2023-03-14T11:43:48;26.45;;;3.67;;
27543;SDS011;17996;51.056;3.656;2023-03-14T11:46:26;25.85;;;3.83;;
27543;SDS011;17996;51.056;3.656;2023-03-14T11:51:43;21.27;;;3.53;;
27543;SDS011;17996;51.056;3.656;2023-03-14T11:54:32;26.20;;;3.88;;
27543;SDS011;17996;51.056;3.656;2023-03-14T11:57:03;20.45;;;3.55;;
27543;SDS011;17996;51.056;3.656;2023-03-14T12:02:25;29.13;;;4.50;;
27543;SDS011;17996;51.056;3.656;2023-03-14T12:13:17;29.40;;;4.40;;
27543;SDS011;17996;51.056;3.656;2023-03-14T12:15:49;28.05;;;4.10;;
27543;SDS011;17996;51.056;3.656;2023-03-14T12:18:26;26.00;;;5.15;;
27543;SDS011;17996;51.056;3.656;2023-03-14T12:20:55;34.95;;;4.25;;
27543;SDS011;17996;51.056;3.656;2023-03-14T12:26:24;30.48;;;5.75;;
27543;SDS011;17996;51.056;3.656;2023-03-14T12:34:01;50.03;;;6.35;;
27543;SDS011;17996;51.056;3.656;2023-03-14T12:47:41;37.17;;;5.35;;
27543;SDS011;17996;51.056;3.656;2023-03-14T12:50:18;39.22;;;5.32;;
27543;SDS011;17996;51.056;3.656;2023-03-14T13:00:58;42.35;;;4.22;;
27543;SDS011;17996;51.056;3.656;2023-03-14T13:03:27;27.52;;;4.07;;
27543;SDS011;17996;51.056;3.656;2023-03-14T13:06:04;30.70;;;3.87;;
27543;SDS011;17996;51.056;3.656;2023-03-14T13:08:40;28.17;;;3.65;;
27543;SDS011;17996;51.056;3.656;2023-03-14T13:11:15;28.70;;;3.58;;
27543;SDS011;17996;51.056;3.656;2023-03-14T13:13:55;43.50;;;4.43;;
27543;SDS011;17996;51.056;3.656;2023-03-14T13:18:49;29.35;;;4.05;;
27543;SDS011;17996;51.056;3.656;2023-03-14T13:21:35;25.27;;;4.00;;
27543;SDS011;17996;51.056;3.656;2023-03-14T13:24:03;26.88;;;3.97;;
27543;SDS011;17996;51.056;3.656;2023-03-14T13:26:36;40.33;;;4.28;;
27543;SDS011;17996;51.056;3.656;2023-03-14T13:32:13;35.72;;;6.07;;
27543;SDS011;17996;51.056;3.656;2023-03-14T13:34:46;20.73;;;3.33;;
27543;SDS011;17996;51.056;3.656;2023-03-14T13:37:17;37.85;;;6.20;;
27543;SDS011;17996;51.056;3.656;2023-03-14T13:39:55;29.75;;;4.30;;
27543;SDS011;17996;51.056;3.656;2023-03-14T13:42:25;26.45;;;4.65;;
27543;SDS011;17996;51.056;3.656;2023-03-14T13:44:53;33.08;;;5.10;;
27543;SDS011;17996;51.056;3.656;2023-03-14T13:47:21;28.90;;;3.17;;
27543;SDS011;17996;51.056;3.656;2023-03-14T13:49:49;14.35;;;3.38;;
27543;SDS011;17996;51.056;3.656;2023-03-14T13:54:55;18.55;;;3.90;;
27543;SDS011;17996;51.056;3.656;2023-03-14T13:57:21;14.77;;;2.28;;
27543;SDS011;17996;51.056;3.656;2023-03-14T14:00:04;19.60;;;3.05;;
27543;SDS011;17996;51.056;3.656;2023-03-14T14:02:35;14.98;;;2.80;;
27543;SDS011;17996;51.056;3.656;2023-03-14T14:05:03;8.27;;;1.80;;
27543;SDS011;17996;51.056;3.656;2023-03-14T14:07:29;10.68;;;1.30;;
27543;SDS011;17996;51.056;3.656;2023-03-14T14:09:55;10.32;;;1.75;;
27543;SDS011;17996;51.056;3.656;2023-03-14T14:12:33;12.43;;;1.70;;
27543;SDS011;17996;51.056;3.656;2023-03-14T14:20:43;14.82;;;4.03;;
27543;SDS011;17996;51.056;3.656;2023-03-14T14:23:19;5.97;;;2.25;;
27543;SDS011;17996;51.056;3.656;2023-03-14T14:25:50;4.88;;;1.60;;
27543;SDS011;17996;51.056;3.656;2023-03-14T14:28:38;6.40;;;1.90;;
27543;SDS011;17996;51.056;3.656;2023-03-14T14:31:22;5.15;;;1.48;;
27543;SDS011;17996;51.056;3.656;2023-03-14T14:36:22;6.53;;;1.23;;
27543;SDS011;17996;51.056;3.656;2023-03-14T14:39:15;3.85;;;1.67;;
27543;SDS011;17996;51.056;3.656;2023-03-14T14:41:45;4.72;;;1.30;;
27543;SDS011;17996;51.056;3.656;2023-03-14T14:44:16;8.02;;;1.00;;
27543;SDS011;17996;51.056;3.656;2023-03-14T14:46:46;6.20;;;1.58;;
27543;SDS011;17996;51.056;3.656;2023-03-14T14:49:13;11.43;;;1.40;;
27543;SDS011;17996;51.056;3.656;2023-03-14T14:51:41;7.45;;;1.50;;
27543;SDS011;17996;51.056;3.656;2023-03-14T14:54:13;6.97;;;1.17;;
27543;SDS011;17996;51.056;3.656;2023-03-14T14:56:45;6.35;;;1.25;;
27543;SDS011;17996;51.056;3.656;2023-03-14T14:59:26;7.75;;;2.15;;
27543;SDS011;17996;51.056;3.656;2023-03-14T15:02:00;11.32;;;1.95;;
27543;SDS011;17996;51.056;3.656;2023-03-14T15:04:28;14.60;;;1.55;;
27543;SDS011;17996;51.056;3.656;2023-03-14T15:09:22;15.82;;;1.92;;
27543;SDS011;17996;51.056;3.656;2023-03-14T15:11:48;13.10;;;1.98;;
27543;SDS011;17996;51.056;3.656;2023-03-14T15:14:14;11.63;;;2.13;;
27543;SDS011;17996;51.056;3.656;2023-03-14T15:16:40;8.00;;;2.10;;
27543;SDS011;17996;51.056;3.656;2023-03-14T15:19:14;11.50;;;1.55;;
27543;SDS011;17996;51.056;3.656;2023-03-14T15:21:49;14.95;;;2.45;;
27543;SDS011;17996;51.056;3.656;2023-03-14T15:24:16;22.73;;;2.47;;
27543;SDS011;17996;51.056;3.656;2023-03-14T15:26:41;11.35;;;1.70;;
27543;SDS011;17996;51.056;3.656;2023-03-14T15:29:09;17.25;;;2.88;;
27543;SDS011;17996;51.056;3.656;2023-03-14T15:31:37;11.95;;;2.83;;
27543;SDS011;17996;51.056;3.656;2023-03-14T15:34:03;13.02;;;2.10;;
27543;SDS011;17996;51.056;3.656;2023-03-14T15:36:30;11.93;;;2.30;;
27543;SDS011;17996;51.056;3.656;2023-03-14T15:38:57;13.55;;;2.10;;
27543;SDS011;17996;51.056;3.656;2023-03-14T15:41:25;10.80;;;1.95;;
27543;SDS011;17996;51.056;3.656;2023-03-14T15:43:52;8.32;;;1.90;;
27543;SDS011;17996;51.056;3.656;2023-03-14T15:46:18;13.52;;;2.17;;
27543;SDS011;17996;51.056;3.656;2023-03-14T15:48:44;14.07;;;2.75;;
27543;SDS011;17996;51.056;3.656;2023-03-14T15:51:10;24.77;;;2.47;;
27543;SDS011;17996;51.056;3.656;2023-03-14T15:53:36;23.77;;;2.53;;
27543;SDS011;17996;51.056;3.656;2023-03-14T15:56:03;24.27;;;3.13;;
27543;SDS011;17996;51.056;3.656;2023-03-14T15:58:31;11.98;;;2.65;;
27543;SDS011;17996;51.056;3.656;2023-03-14T16:00:59;21.08;;;3.30;;
27543;SDS011;17996;51.056;3.656;2023-03-14T16:03:26;24.85;;;3.70;;
27543;SDS011;17996;51.056;3.656;2023-03-14T16:05:53;17.10;;;3.30;;
27543;SDS011;17996;51.056;3.656;2023-03-14T16:08:19;16.48;;;2.95;;
27543;SDS011;17996;51.056;3.656;2023-03-14T16:10:45;17.00;;;3.40;;
27543;SDS011;17996;51.056;3.656;2023-03-14T16:13:11;13.25;;;2.38;;
27543;SDS011;17996;51.056;3.656;2023-03-14T16:15:37;16.10;;;2.70;;
27543;SDS011;17996;51.056;3.656;2023-03-14T16:18:02;26.27;;;2.90;;
27543;SDS011;17996;51.056;3.656;2023-03-14T16:20:28;21.67;;;3.92;;
27543;SDS011;17996;51.056;3.656;2023-03-14T16:22:54;25.10;;;2.50;;
27543;SDS011;17996;51.056;3.656;2023-03-14T16:25:20;24.88;;;3.65;;
27543;SDS011;17996;51.056;3.656;2023-03-14T16:27:47;15.40;;;2.30;;